sensor_id;sensor_type;location;lat;lon;timestamp;temperature;humidity
13591;DHT22;6866;50.778;7.206;2022-09-06T00:01:33;20.70;49.60
13591;DHT22;6866;50.778;7.206;2022-09-06T00:03:59;20.70;49.10
13591;DHT22;6866;50.778;7.206;2022-09-06T00:06:24;20.70;49.30
13591;DHT22;6866;50.778;7.206;2022-09-06T00:08:50;20.80;49.50
13591;DHT22;6866;50.778;7.206;2022-09-06T00:11:16;20.80;49.10
13591;DHT22;6866;50.778;7.206;2022-09-06T00:13:43;20.80;48.90
13591;DHT22;6866;50.778;7.206;2022-09-06T00:16:11;20.80;49.00
13591;DHT22;6866;50.778;7.206;2022-09-06T00:18:37;20.80;48.90
13591;DHT22;6866;50.778;7.206;2022-09-06T00:21:04;20.80;49.10
13591;DHT22;6866;50.778;7.206;2022-09-06T00:23:37;20.80;49.20
13591;DHT22;6866;50.778;7.206;2022-09-06T00:26:03;20.90;48.90
13591;DHT22;6866;50.778;7.206;2022-09-06T00:28:29;20.90;49.40
13591;DHT22;6866;50.778;7.206;2022-09-06T00:30:54;20.90;49.10
13591;DHT22;6866;50.778;7.206;2022-09-06T00:33:20;20.90;49.50
13591;DHT22;6866;50.778;7.206;2022-09-06T00:35:46;20.90;49.90
13591;DHT22;6866;50.778;7.206;2022-09-06T00:38:13;20.90;49.10
13591;DHT22;6866;50.778;7.206;2022-09-06T00:40:39;20.90;49.60
13591;DHT22;6866;50.778;7.206;2022-09-06T00:43:05;20.90;49.80
13591;DHT22;6866;50.778;7.206;2022-09-06T00:45:31;20.80;49.70
13591;DHT22;6866;50.778;7.206;2022-09-06T00:47:58;20.80;50.00
13591;DHT22;6866;50.778;7.206;2022-09-06T00:50:25;21.00;49.80
13591;DHT22;6866;50.778;7.206;2022-09-06T00:52:52;21.10;49.90
13591;DHT22;6866;50.778;7.206;2022-09-06T00:55:19;21.10;50.40
13591;DHT22;6866;50.778;7.206;2022-09-06T00:57:45;21.10;51.50
13591;DHT22;6866;50.778;7.206;2022-09-06T01:05:46;21.20;51.60
13591;DHT22;6866;50.778;7.206;2022-09-06T01:08:48;21.20;52.00
13591;DHT22;6866;50.778;7.206;2022-09-06T01:20:09;21.20;55.30
13591;DHT22;6866;50.778;7.206;2022-09-06T01:30:27;21.20;57.50
13591;DHT22;6866;50.778;7.206;2022-09-06T01:33:18;21.10;58.80
13591;DHT22;6866;50.778;7.206;2022-09-06T01:35:54;21.20;58.80
13591;DHT22;6866;50.778;7.206;2022-09-06T01:38:21;21.20;58.90
13591;DHT22;6866;50.778;7.206;2022-09-06T01:40:47;21.20;59.20
13591;DHT22;6866;50.778;7.206;2022-09-06T01:43:21;21.20;58.80
13591;DHT22;6866;50.778;7.206;2022-09-06T01:48:38;21.10;58.70
13591;DHT22;6866;50.778;7.206;2022-09-06T01:51:32;21.10;58.50
13591;DHT22;6866;50.778;7.206;2022-09-06T01:54:17;21.00;58.70
13591;DHT22;6866;50.778;7.206;2022-09-06T01:57:23;21.00;59.20
13591;DHT22;6866;50.778;7.206;2022-09-06T01:59:59;20.90;59.30
13591;DHT22;6866;50.778;7.206;2022-09-06T02:02:45;21.00;59.30
13591;DHT22;6866;50.778;7.206;2022-09-06T02:07:54;21.00;59.10
13591;DHT22;6866;50.778;7.206;2022-09-06T02:10:29;21.00;59.30
13591;DHT22;6866;50.778;7.206;2022-09-06T02:12:59;20.80;59.50
13591;DHT22;6866;50.778;7.206;2022-09-06T02:15:28;20.70;59.90
13591;DHT22;6866;50.778;7.206;2022-09-06T02:18:04;20.80;59.80
13591;DHT22;6866;50.778;7.206;2022-09-06T02:20:32;20.80;61.10
13591;DHT22;6866;50.778;7.206;2022-09-06T02:23:03;20.80;60.30
13591;DHT22;6866;50.778;7.206;2022-09-06T02:25:34;20.80;61.40
13591;DHT22;6866;50.778;7.206;2022-09-06T02:28:01;20.60;62.90
13591;DHT22;6866;50.778;7.206;2022-09-06T02:30:27;20.60;63.40
13591;DHT22;6866;50.778;7.206;2022-09-06T02:32:57;20.50;65.60
13591;DHT22;6866;50.778;7.206;2022-09-06T02:35:24;20.10;69.00
13591;DHT22;6866;50.778;7.206;2022-09-06T02:37:49;20.20;68.10
13591;DHT22;6866;50.778;7.206;2022-09-06T02:40:16;20.30;67.70
13591;DHT22;6866;50.778;7.206;2022-09-06T02:42:42;20.30;67.30
13591;DHT22;6866;50.778;7.206;2022-09-06T02:45:08;20.30;67.00
13591;DHT22;6866;50.778;7.206;2022-09-06T02:47:34;20.40;66.40
13591;DHT22;6866;50.778;7.206;2022-09-06T02:49:59;20.30;67.10
13591;DHT22;6866;50.778;7.206;2022-09-06T02:52:25;20.30;67.00
13591;DHT22;6866;50.778;7.206;2022-09-06T02:54:51;20.20;68.30
13591;DHT22;6866;50.778;7.206;2022-09-06T02:57:17;20.10;68.50
13591;DHT22;6866;50.778;7.206;2022-09-06T02:59:42;20.20;68.60
13591;DHT22;6866;50.778;7.206;2022-09-06T03:02:08;20.10;69.20
13591;DHT22;6866;50.778;7.206;2022-09-06T03:04:34;20.00;69.50
13591;DHT22;6866;50.778;7.206;2022-09-06T03:06:59;20.00;69.50
13591;DHT22;6866;50.778;7.206;2022-09-06T03:09:25;20.00;69.20
13591;DHT22;6866;50.778;7.206;2022-09-06T03:11:50;20.10;68.80
13591;DHT22;6866;50.778;7.206;2022-09-06T03:14:16;20.10;69.00
13591;DHT22;6866;50.778;7.206;2022-09-06T03:16:43;20.00;69.30
13591;DHT22;6866;50.778;7.206;2022-09-06T03:19:09;20.00;69.10
13591;DHT22;6866;50.778;7.206;2022-09-06T03:21:34;20.00;69.30
13591;DHT22;6866;50.778;7.206;2022-09-06T03:24:00;19.90;69.50
13591;DHT22;6866;50.778;7.206;2022-09-06T03:26:26;19.90;69.30
13591;DHT22;6866;50.778;7.206;2022-09-06T03:28:52;19.90;69.70
13591;DHT22;6866;50.778;7.206;2022-09-06T03:31:17;19.80;69.80
13591;DHT22;6866;50.778;7.206;2022-09-06T03:33:43;19.80;69.60
13591;DHT22;6866;50.778;7.206;2022-09-06T03:36:09;19.70;69.80
13591;DHT22;6866;50.778;7.206;2022-09-06T03:38:34;19.60;70.40
13591;DHT22;6866;50.778;7.206;2022-09-06T03:41:00;19.60;70.20
13591;DHT22;6866;50.778;7.206;2022-09-06T03:43:26;19.60;70.30
13591;DHT22;6866;50.778;7.206;2022-09-06T03:45:53;19.50;70.00
13591;DHT22;6866;50.778;7.206;2022-09-06T03:48:20;19.50;70.80
13591;DHT22;6866;50.778;7.206;2022-09-06T03:50:52;19.50;70.40
13591;DHT22;6866;50.778;7.206;2022-09-06T03:53:19;19.40;71.50
13591;DHT22;6866;50.778;7.206;2022-09-06T03:55:46;19.20;72.60
13591;DHT22;6866;50.778;7.206;2022-09-06T03:58:12;19.20;72.30
13591;DHT22;6866;50.778;7.206;2022-09-06T04:00:38;19.30;72.50
13591;DHT22;6866;50.778;7.206;2022-09-06T04:03:03;19.10;73.00
13591;DHT22;6866;50.778;7.206;2022-09-06T04:05:29;19.10;72.90
13591;DHT22;6866;50.778;7.206;2022-09-06T04:07:54;19.20;73.40
13591;DHT22;6866;50.778;7.206;2022-09-06T04:10:20;19.20;72.80
13591;DHT22;6866;50.778;7.206;2022-09-06T04:12:46;19.10;73.40
13591;DHT22;6866;50.778;7.206;2022-09-06T04:15:11;19.00;73.90
13591;DHT22;6866;50.778;7.206;2022-09-06T04:17:37;19.00;73.90
13591;DHT22;6866;50.778;7.206;2022-09-06T04:20:03;18.90;74.00
13591;DHT22;6866;50.778;7.206;2022-09-06T04:22:29;19.00;73.60
13591;DHT22;6866;50.778;7.206;2022-09-06T04:24:55;18.90;73.20
13591;DHT22;6866;50.778;7.206;2022-09-06T04:27:21;19.00;72.90
13591;DHT22;6866;50.778;7.206;2022-09-06T04:29:46;18.90;73.30
13591;DHT22;6866;50.778;7.206;2022-09-06T04:32:12;18.90;73.20
13591;DHT22;6866;50.778;7.206;2022-09-06T04:34:38;18.90;73.20
13591;DHT22;6866;50.778;7.206;2022-09-06T04:37:03;18.90;73.20
13591;DHT22;6866;50.778;7.206;2022-09-06T04:39:29;18.90;72.80
13591;DHT22;6866;50.778;7.206;2022-09-06T04:41:54;18.90;72.90
13591;DHT22;6866;50.778;7.206;2022-09-06T04:44:20;18.80;72.70
13591;DHT22;6866;50.778;7.206;2022-09-06T04:46:45;18.80;72.60
13591;DHT22;6866;50.778;7.206;2022-09-06T04:49:11;18.80;72.90
13591;DHT22;6866;50.778;7.206;2022-09-06T04:51:36;18.70;73.10
13591;DHT22;6866;50.778;7.206;2022-09-06T04:54:04;18.70;72.60
13591;DHT22;6866;50.778;7.206;2022-09-06T04:56:29;18.70;72.80
13591;DHT22;6866;50.778;7.206;2022-09-06T04:58:55;18.70;73.50
13591;DHT22;6866;50.778;7.206;2022-09-06T05:01:21;18.70;73.40
13591;DHT22;6866;50.778;7.206;2022-09-06T05:03:47;18.50;75.30
13591;DHT22;6866;50.778;7.206;2022-09-06T05:08:42;18.60;75.70
13591;DHT22;6866;50.778;7.206;2022-09-06T05:11:09;18.60;75.50
13591;DHT22;6866;50.778;7.206;2022-09-06T05:13:35;18.60;75.40
13591;DHT22;6866;50.778;7.206;2022-09-06T05:16:03;18.50;75.80
13591;DHT22;6866;50.778;7.206;2022-09-06T05:18:29;18.50;75.90
13591;DHT22;6866;50.778;7.206;2022-09-06T05:20:55;18.50;75.20
13591;DHT22;6866;50.778;7.206;2022-09-06T05:23:21;18.50;75.70
13591;DHT22;6866;50.778;7.206;2022-09-06T05:25:47;18.50;75.80
13591;DHT22;6866;50.778;7.206;2022-09-06T05:28:14;18.50;75.30
13591;DHT22;6866;50.778;7.206;2022-09-06T05:30:40;18.70;74.60
13591;DHT22;6866;50.778;7.206;2022-09-06T05:33:10;18.60;74.60
13591;DHT22;6866;50.778;7.206;2022-09-06T05:35:36;18.50;74.80
13591;DHT22;6866;50.778;7.206;2022-09-06T05:38:01;18.60;74.00
13591;DHT22;6866;50.778;7.206;2022-09-06T05:40:27;18.70;73.40
13591;DHT22;6866;50.778;7.206;2022-09-06T05:42:52;18.60;74.00
13591;DHT22;6866;50.778;7.206;2022-09-06T05:45:18;18.50;74.00
13591;DHT22;6866;50.778;7.206;2022-09-06T05:47:44;18.70;73.20
13591;DHT22;6866;50.778;7.206;2022-09-06T05:50:10;18.70;72.20
13591;DHT22;6866;50.778;7.206;2022-09-06T05:52:35;18.90;71.70
13591;DHT22;6866;50.778;7.206;2022-09-06T05:55:02;18.80;71.30
13591;DHT22;6866;50.778;7.206;2022-09-06T05:57:27;18.80;71.70
13591;DHT22;6866;50.778;7.206;2022-09-06T05:59:53;18.90;71.10
13591;DHT22;6866;50.778;7.206;2022-09-06T06:02:20;19.90;69.10
13591;DHT22;6866;50.778;7.206;2022-09-06T06:04:45;20.80;63.50
13591;DHT22;6866;50.778;7.206;2022-09-06T06:07:11;20.00;64.90
13591;DHT22;6866;50.778;7.206;2022-09-06T06:09:37;19.70;66.60
13591;DHT22;6866;50.778;7.206;2022-09-06T06:12:02;19.50;67.80
13591;DHT22;6866;50.778;7.206;2022-09-06T06:14:28;19.40;69.10
13591;DHT22;6866;50.778;7.206;2022-09-06T06:16:53;19.60;68.60
13591;DHT22;6866;50.778;7.206;2022-09-06T06:19:19;19.50;68.40
13591;DHT22;6866;50.778;7.206;2022-09-06T06:21:44;21.30;65.10
13591;DHT22;6866;50.778;7.206;2022-09-06T06:24:10;25.70;52.80
13591;DHT22;6866;50.778;7.206;2022-09-06T06:26:35;28.80;44.10
13591;DHT22;6866;50.778;7.206;2022-09-06T06:29:02;30.50;39.20
13591;DHT22;6866;50.778;7.206;2022-09-06T06:31:28;30.90;37.40
13591;DHT22;6866;50.778;7.206;2022-09-06T06:33:54;30.50;36.90
13591;DHT22;6866;50.778;7.206;2022-09-06T06:36:22;31.30;35.30
13591;DHT22;6866;50.778;7.206;2022-09-06T06:38:49;31.70;34.20
13591;DHT22;6866;50.778;7.206;2022-09-06T06:41:17;32.70;32.60
13591;DHT22;6866;50.778;7.206;2022-09-06T06:43:43;32.40;32.70
13591;DHT22;6866;50.778;7.206;2022-09-06T06:46:14;33.30;31.60
13591;DHT22;6866;50.778;7.206;2022-09-06T06:48:41;33.50;30.50
13591;DHT22;6866;50.778;7.206;2022-09-06T06:51:09;33.70;30.10
13591;DHT22;6866;50.778;7.206;2022-09-06T06:53:35;33.90;30.30
13591;DHT22;6866;50.778;7.206;2022-09-06T06:56:11;33.90;29.80
13591;DHT22;6866;50.778;7.206;2022-09-06T06:58:37;34.50;29.40
13591;DHT22;6866;50.778;7.206;2022-09-06T07:01:03;34.20;29.20
13591;DHT22;6866;50.778;7.206;2022-09-06T07:03:28;34.50;29.30
13591;DHT22;6866;50.778;7.206;2022-09-06T07:05:54;34.80;29.10
13591;DHT22;6866;50.778;7.206;2022-09-06T07:08:20;34.90;28.60
13591;DHT22;6866;50.778;7.206;2022-09-06T07:10:45;34.80;28.90
13591;DHT22;6866;50.778;7.206;2022-09-06T07:13:11;34.80;28.90
13591;DHT22;6866;50.778;7.206;2022-09-06T07:15:36;34.70;28.60
13591;DHT22;6866;50.778;7.206;2022-09-06T07:18:02;35.60;28.20
13591;DHT22;6866;50.778;7.206;2022-09-06T07:20:28;35.40;28.30
13591;DHT22;6866;50.778;7.206;2022-09-06T07:23:01;35.90;27.90
13591;DHT22;6866;50.778;7.206;2022-09-06T07:25:29;35.90;27.70
13591;DHT22;6866;50.778;7.206;2022-09-06T07:27:58;34.90;28.10
13591;DHT22;6866;50.778;7.206;2022-09-06T07:30:26;35.00;28.50
13591;DHT22;6866;50.778;7.206;2022-09-06T07:32:51;35.70;27.90
13591;DHT22;6866;50.778;7.206;2022-09-06T07:35:17;35.60;27.40
13591;DHT22;6866;50.778;7.206;2022-09-06T07:37:51;34.70;27.40
13591;DHT22;6866;50.778;7.206;2022-09-06T07:40:16;34.80;28.30
13591;DHT22;6866;50.778;7.206;2022-09-06T07:42:42;35.40;28.10
13591;DHT22;6866;50.778;7.206;2022-09-06T07:45:08;35.20;27.80
13591;DHT22;6866;50.778;7.206;2022-09-06T07:47:34;35.40;27.30
13591;DHT22;6866;50.778;7.206;2022-09-06T07:49:59;34.60;27.80
13591;DHT22;6866;50.778;7.206;2022-09-06T07:52:25;34.90;28.20
13591;DHT22;6866;50.778;7.206;2022-09-06T07:54:51;36.20;26.70
13591;DHT22;6866;50.778;7.206;2022-09-06T07:57:17;35.70;27.00
13591;DHT22;6866;50.778;7.206;2022-09-06T07:59:42;35.70;26.60
13591;DHT22;6866;50.778;7.206;2022-09-06T08:02:07;35.80;26.70
13591;DHT22;6866;50.778;7.206;2022-09-06T08:04:33;35.10;27.20
13591;DHT22;6866;50.778;7.206;2022-09-06T08:06:59;34.90;26.20
13591;DHT22;6866;50.778;7.206;2022-09-06T08:09:26;34.10;28.20
13591;DHT22;6866;50.778;7.206;2022-09-06T08:11:52;34.40;28.10
13591;DHT22;6866;50.778;7.206;2022-09-06T08:14:17;34.60;27.60
13591;DHT22;6866;50.778;7.206;2022-09-06T08:16:44;34.70;27.60
13591;DHT22;6866;50.778;7.206;2022-09-06T08:19:09;34.80;27.40
13591;DHT22;6866;50.778;7.206;2022-09-06T08:21:36;34.80;27.30
13591;DHT22;6866;50.778;7.206;2022-09-06T08:24:04;34.80;27.40
13591;DHT22;6866;50.778;7.206;2022-09-06T08:26:32;34.40;27.10
13591;DHT22;6866;50.778;7.206;2022-09-06T08:28:59;33.70;27.30
13591;DHT22;6866;50.778;7.206;2022-09-06T08:31:27;34.10;27.70
13591;DHT22;6866;50.778;7.206;2022-09-06T08:33:53;34.00;27.70
13591;DHT22;6866;50.778;7.206;2022-09-06T08:36:19;34.00;27.50
13591;DHT22;6866;50.778;7.206;2022-09-06T08:38:45;35.00;26.90
13591;DHT22;6866;50.778;7.206;2022-09-06T08:41:29;35.30;25.80
13591;DHT22;6866;50.778;7.206;2022-09-06T08:44:02;35.20;25.90
13591;DHT22;6866;50.778;7.206;2022-09-06T08:47:17;34.70;25.30
13591;DHT22;6866;50.778;7.206;2022-09-06T08:49:17;33.90;25.60
13591;DHT22;6866;50.778;7.206;2022-09-06T08:59:47;34.60;26.30
13591;DHT22;6866;50.778;7.206;2022-09-06T09:02:19;33.60;26.90
13591;DHT22;6866;50.778;7.206;2022-09-06T09:07:18;34.70;25.90
13591;DHT22;6866;50.778;7.206;2022-09-06T09:09:46;34.80;26.00
13591;DHT22;6866;50.778;7.206;2022-09-06T09:12:14;35.40;25.90
13591;DHT22;6866;50.778;7.206;2022-09-06T09:14:42;34.80;25.90
13591;DHT22;6866;50.778;7.206;2022-09-06T09:17:11;35.20;25.80
13591;DHT22;6866;50.778;7.206;2022-09-06T09:19:40;35.20;25.60
13591;DHT22;6866;50.778;7.206;2022-09-06T09:22:06;34.90;25.50
13591;DHT22;6866;50.778;7.206;2022-09-06T09:24:32;34.50;26.70
13591;DHT22;6866;50.778;7.206;2022-09-06T09:27:05;34.80;26.00
13591;DHT22;6866;50.778;7.206;2022-09-06T09:32:31;34.30;26.80
13591;DHT22;6866;50.778;7.206;2022-09-06T09:37:46;34.90;26.50
13591;DHT22;6866;50.778;7.206;2022-09-06T09:40:26;34.70;26.80
13591;DHT22;6866;50.778;7.206;2022-09-06T09:42:54;33.80;26.90
13591;DHT22;6866;50.778;7.206;2022-09-06T09:45:28;33.00;28.40
13591;DHT22;6866;50.778;7.206;2022-09-06T09:47:54;33.70;27.60
13591;DHT22;6866;50.778;7.206;2022-09-06T09:50:32;33.50;28.10
13591;DHT22;6866;50.778;7.206;2022-09-06T09:53:18;34.00;27.60
13591;DHT22;6866;50.778;7.206;2022-09-06T09:55:46;33.50;27.10
13591;DHT22;6866;50.778;7.206;2022-09-06T09:58:24;33.50;28.20
13591;DHT22;6866;50.778;7.206;2022-09-06T10:03:39;33.30;27.70
13591;DHT22;6866;50.778;7.206;2022-09-06T10:06:09;32.10;29.10
13591;DHT22;6866;50.778;7.206;2022-09-06T10:08:39;32.60;29.60
13591;DHT22;6866;50.778;7.206;2022-09-06T10:11:11;32.80;29.10
13591;DHT22;6866;50.778;7.206;2022-09-06T10:13:38;32.50;29.10
13591;DHT22;6866;50.778;7.206;2022-09-06T10:16:06;32.10;29.90
13591;DHT22;6866;50.778;7.206;2022-09-06T10:18:40;32.20;29.60
13591;DHT22;6866;50.778;7.206;2022-09-06T10:21:11;32.80;29.30
13591;DHT22;6866;50.778;7.206;2022-09-06T10:26:49;32.90;28.30
13591;DHT22;6866;50.778;7.206;2022-09-06T10:30:03;32.20;29.10
13591;DHT22;6866;50.778;7.206;2022-09-06T10:32:30;32.40;29.10
13591;DHT22;6866;50.778;7.206;2022-09-06T10:35:22;32.10;29.50
13591;DHT22;6866;50.778;7.206;2022-09-06T10:40:45;32.60;29.00
13591;DHT22;6866;50.778;7.206;2022-09-06T10:43:17;32.40;29.10
13591;DHT22;6866;50.778;7.206;2022-09-06T10:45:55;32.50;28.90
13591;DHT22;6866;50.778;7.206;2022-09-06T10:48:31;31.90;29.20
13591;DHT22;6866;50.778;7.206;2022-09-06T10:51:28;31.70;29.60
13591;DHT22;6866;50.778;7.206;2022-09-06T10:54:06;32.30;29.80
13591;DHT22;6866;50.778;7.206;2022-09-06T10:56:43;32.60;29.10
13591;DHT22;6866;50.778;7.206;2022-09-06T10:59:24;32.70;29.20
13591;DHT22;6866;50.778;7.206;2022-09-06T11:02:11;32.50;29.10
13591;DHT22;6866;50.778;7.206;2022-09-06T11:04:41;32.10;29.40
13591;DHT22;6866;50.778;7.206;2022-09-06T11:09:52;31.40;29.90
13591;DHT22;6866;50.778;7.206;2022-09-06T11:12:46;31.30;30.30
13591;DHT22;6866;50.778;7.206;2022-09-06T11:15:15;31.70;29.90
13591;DHT22;6866;50.778;7.206;2022-09-06T11:17:54;32.10;29.40
13591;DHT22;6866;50.778;7.206;2022-09-06T11:20:27;32.00;29.30
13591;DHT22;6866;50.778;7.206;2022-09-06T11:23:19;32.40;29.10
13591;DHT22;6866;50.778;7.206;2022-09-06T11:26:31;32.30;29.10
13591;DHT22;6866;50.778;7.206;2022-09-06T11:29:07;32.30;29.00
13591;DHT22;6866;50.778;7.206;2022-09-06T11:31:47;32.10;29.10
13591;DHT22;6866;50.778;7.206;2022-09-06T11:34:21;32.30;28.80
13591;DHT22;6866;50.778;7.206;2022-09-06T11:36:53;32.30;29.00
13591;DHT22;6866;50.778;7.206;2022-09-06T11:41:57;31.60;29.00
13591;DHT22;6866;50.778;7.206;2022-09-06T11:48:21;31.80;30.00
13591;DHT22;6866;50.778;7.206;2022-09-06T11:50:59;31.70;29.40
13591;DHT22;6866;50.778;7.206;2022-09-06T11:53:30;32.00;29.30
13591;DHT22;6866;50.778;7.206;2022-09-06T11:58:42;32.30;29.10
13591;DHT22;6866;50.778;7.206;2022-09-06T12:08:41;31.10;30.70
13591;DHT22;6866;50.778;7.206;2022-09-06T12:11:25;30.70;31.20
13591;DHT22;6866;50.778;7.206;2022-09-06T12:16:22;30.50;31.60
13591;DHT22;6866;50.778;7.206;2022-09-06T12:21:33;30.30;32.00
13591;DHT22;6866;50.778;7.206;2022-09-06T12:23:59;30.30;32.40
13591;DHT22;6866;50.778;7.206;2022-09-06T12:26:51;30.40;32.00
13591;DHT22;6866;50.778;7.206;2022-09-06T12:29:29;30.60;31.90
13591;DHT22;6866;50.778;7.206;2022-09-06T12:31:58;30.60;31.90
13591;DHT22;6866;50.778;7.206;2022-09-06T12:34:29;30.70;31.90
13591;DHT22;6866;50.778;7.206;2022-09-06T12:37:04;30.70;31.60
13591;DHT22;6866;50.778;7.206;2022-09-06T12:39:32;30.70;31.70
13591;DHT22;6866;50.778;7.206;2022-09-06T12:42:01;30.80;32.10
13591;DHT22;6866;50.778;7.206;2022-09-06T12:44:29;31.40;31.70
13591;DHT22;6866;50.778;7.206;2022-09-06T12:46:55;31.80;30.80
13591;DHT22;6866;50.778;7.206;2022-09-06T12:49:24;32.00;30.80
13591;DHT22;6866;50.778;7.206;2022-09-06T12:51:49;31.70;30.90
13591;DHT22;6866;50.778;7.206;2022-09-06T12:54:21;31.60;31.60
13591;DHT22;6866;50.778;7.206;2022-09-06T12:56:47;31.90;30.60
13591;DHT22;6866;50.778;7.206;2022-09-06T12:59:23;31.70;30.70
13591;DHT22;6866;50.778;7.206;2022-09-06T13:02:06;31.90;30.80
13591;DHT22;6866;50.778;7.206;2022-09-06T13:04:45;32.30;30.40
13591;DHT22;6866;50.778;7.206;2022-09-06T13:07:14;32.40;30.20
13591;DHT22;6866;50.778;7.206;2022-09-06T13:09:44;31.80;29.80
13591;DHT22;6866;50.778;7.206;2022-09-06T13:12:41;31.80;29.80
13591;DHT22;6866;50.778;7.206;2022-09-06T13:15:17;31.80;29.90
13591;DHT22;6866;50.778;7.206;2022-09-06T13:17:45;32.10;30.00
13591;DHT22;6866;50.778;7.206;2022-09-06T13:22:48;32.00;30.00
13591;DHT22;6866;50.778;7.206;2022-09-06T13:27:54;31.80;30.20
13591;DHT22;6866;50.778;7.206;2022-09-06T13:30:40;31.80;29.90
13591;DHT22;6866;50.778;7.206;2022-09-06T13:33:25;31.60;29.80
13591;DHT22;6866;50.778;7.206;2022-09-06T13:41:06;32.20;28.70
13591;DHT22;6866;50.778;7.206;2022-09-06T13:43:56;32.00;28.70
13591;DHT22;6866;50.778;7.206;2022-09-06T13:46:22;32.00;29.30
13591;DHT22;6866;50.778;7.206;2022-09-06T13:48:48;32.10;29.20
13591;DHT22;6866;50.778;7.206;2022-09-06T13:51:13;32.10;28.90
13591;DHT22;6866;50.778;7.206;2022-09-06T13:53:39;32.30;29.10
13591;DHT22;6866;50.778;7.206;2022-09-06T13:56:05;32.20;29.00
13591;DHT22;6866;50.778;7.206;2022-09-06T13:58:35;31.60;29.60
13591;DHT22;6866;50.778;7.206;2022-09-06T14:01:01;31.80;29.70
13591;DHT22;6866;50.778;7.206;2022-09-06T14:03:29;32.20;29.00
13591;DHT22;6866;50.778;7.206;2022-09-06T14:05:56;32.20;28.90
13591;DHT22;6866;50.778;7.206;2022-09-06T14:08:21;32.10;29.20
13591;DHT22;6866;50.778;7.206;2022-09-06T14:10:47;31.90;29.80
13591;DHT22;6866;50.778;7.206;2022-09-06T14:13:15;31.80;29.50
13591;DHT22;6866;50.778;7.206;2022-09-06T14:15:41;31.70;28.60
13591;DHT22;6866;50.778;7.206;2022-09-06T14:18:06;31.40;28.80
13591;DHT22;6866;50.778;7.206;2022-09-06T14:20:32;30.90;30.70
13591;DHT22;6866;50.778;7.206;2022-09-06T14:22:58;30.30;32.80
13591;DHT22;6866;50.778;7.206;2022-09-06T14:25:23;30.50;33.10
13591;DHT22;6866;50.778;7.206;2022-09-06T14:27:49;30.30;33.90
13591;DHT22;6866;50.778;7.206;2022-09-06T14:30:15;30.50;34.20
13591;DHT22;6866;50.778;7.206;2022-09-06T14:32:40;30.80;34.30
13591;DHT22;6866;50.778;7.206;2022-09-06T14:35:06;30.90;34.20
13591;DHT22;6866;50.778;7.206;2022-09-06T14:37:32;30.90;34.30
13591;DHT22;6866;50.778;7.206;2022-09-06T14:39:59;31.00;33.80
13591;DHT22;6866;50.778;7.206;2022-09-06T14:42:24;30.90;33.00
13591;DHT22;6866;50.778;7.206;2022-09-06T14:44:50;31.00;33.00
13591;DHT22;6866;50.778;7.206;2022-09-06T14:47:16;30.90;32.90
13591;DHT22;6866;50.778;7.206;2022-09-06T14:49:42;30.40;32.90
13591;DHT22;6866;50.778;7.206;2022-09-06T14:52:07;30.50;32.30
13591;DHT22;6866;50.778;7.206;2022-09-06T14:54:33;30.60;32.40
13591;DHT22;6866;50.778;7.206;2022-09-06T14:56:59;30.80;31.70
13591;DHT22;6866;50.778;7.206;2022-09-06T14:59:25;30.90;31.80
13591;DHT22;6866;50.778;7.206;2022-09-06T15:01:51;30.80;32.30
13591;DHT22;6866;50.778;7.206;2022-09-06T15:04:17;30.80;32.40
13591;DHT22;6866;50.778;7.206;2022-09-06T15:06:43;30.60;32.90
13591;DHT22;6866;50.778;7.206;2022-09-06T15:09:13;30.60;33.30
13591;DHT22;6866;50.778;7.206;2022-09-06T15:11:47;30.70;33.00
13591;DHT22;6866;50.778;7.206;2022-09-06T15:14:16;30.70;32.70
13591;DHT22;6866;50.778;7.206;2022-09-06T15:16:43;30.70;32.90
13591;DHT22;6866;50.778;7.206;2022-09-06T15:19:09;30.40;33.00
13591;DHT22;6866;50.778;7.206;2022-09-06T15:21:35;30.30;33.30
13591;DHT22;6866;50.778;7.206;2022-09-06T15:24:01;30.40;33.00
13591;DHT22;6866;50.778;7.206;2022-09-06T15:26:27;30.50;32.30
13591;DHT22;6866;50.778;7.206;2022-09-06T15:28:53;30.40;32.20
13591;DHT22;6866;50.778;7.206;2022-09-06T15:31:19;30.50;32.30
13591;DHT22;6866;50.778;7.206;2022-09-06T15:33:45;30.50;32.30
13591;DHT22;6866;50.778;7.206;2022-09-06T15:36:13;30.50;32.20
13591;DHT22;6866;50.778;7.206;2022-09-06T15:38:41;30.60;31.70
13591;DHT22;6866;50.778;7.206;2022-09-06T15:41:12;30.50;31.70
13591;DHT22;6866;50.778;7.206;2022-09-06T15:43:40;30.70;31.50
13591;DHT22;6866;50.778;7.206;2022-09-06T15:46:07;30.60;31.40
13591;DHT22;6866;50.778;7.206;2022-09-06T15:48:42;30.60;30.00
13591;DHT22;6866;50.778;7.206;2022-09-06T15:51:08;30.40;30.10
13591;DHT22;6866;50.778;7.206;2022-09-06T15:53:34;30.50;29.60
13591;DHT22;6866;50.778;7.206;2022-09-06T15:56:00;30.40;29.60
13591;DHT22;6866;50.778;7.206;2022-09-06T15:58:27;30.40;30.60
13591;DHT22;6866;50.778;7.206;2022-09-06T16:03:30;30.50;29.80
13591;DHT22;6866;50.778;7.206;2022-09-06T16:06:04;30.40;29.60
13591;DHT22;6866;50.778;7.206;2022-09-06T16:08:31;30.30;29.80
13591;DHT22;6866;50.778;7.206;2022-09-06T16:10:57;30.40;29.90
13591;DHT22;6866;50.778;7.206;2022-09-06T16:13:23;30.40;29.90
13591;DHT22;6866;50.778;7.206;2022-09-06T16:15:58;30.40;29.80
13591;DHT22;6866;50.778;7.206;2022-09-06T16:18:23;30.40;29.80
13591;DHT22;6866;50.778;7.206;2022-09-06T16:20:50;30.40;29.70
13591;DHT22;6866;50.778;7.206;2022-09-06T16:23:15;30.30;29.70
13591;DHT22;6866;50.778;7.206;2022-09-06T16:25:41;30.20;29.50
13591;DHT22;6866;50.778;7.206;2022-09-06T16:28:11;30.20;29.60
13591;DHT22;6866;50.778;7.206;2022-09-06T16:30:40;30.10;29.30
13591;DHT22;6866;50.778;7.206;2022-09-06T16:33:06;30.10;29.40
13591;DHT22;6866;50.778;7.206;2022-09-06T16:35:32;29.90;29.50
13591;DHT22;6866;50.778;7.206;2022-09-06T16:37:57;29.90;29.40
13591;DHT22;6866;50.778;7.206;2022-09-06T16:40:24;29.90;29.30
13591;DHT22;6866;50.778;7.206;2022-09-06T16:42:50;29.80;29.60
13591;DHT22;6866;50.778;7.206;2022-09-06T16:45:18;29.70;29.90
13591;DHT22;6866;50.778;7.206;2022-09-06T16:47:44;29.70;30.10
13591;DHT22;6866;50.778;7.206;2022-09-06T16:50:11;29.60;30.40
13591;DHT22;6866;50.778;7.206;2022-09-06T16:52:37;29.60;30.80
13591;DHT22;6866;50.778;7.206;2022-09-06T16:55:05;29.50;31.20
13591;DHT22;6866;50.778;7.206;2022-09-06T16:57:30;29.50;31.20
13591;DHT22;6866;50.778;7.206;2022-09-06T16:59:58;29.50;31.60
13591;DHT22;6866;50.778;7.206;2022-09-06T17:02:23;29.40;31.90
13591;DHT22;6866;50.778;7.206;2022-09-06T17:04:49;29.40;32.10
13591;DHT22;6866;50.778;7.206;2022-09-06T17:07:15;29.30;31.90
13591;DHT22;6866;50.778;7.206;2022-09-06T17:09:40;29.30;31.90
13591;DHT22;6866;50.778;7.206;2022-09-06T17:12:06;29.20;31.90
13591;DHT22;6866;50.778;7.206;2022-09-06T17:14:31;29.10;32.00
13591;DHT22;6866;50.778;7.206;2022-09-06T17:16:57;29.10;32.30
13591;DHT22;6866;50.778;7.206;2022-09-06T17:19:29;29.10;32.50
13591;DHT22;6866;50.778;7.206;2022-09-06T17:21:56;29.00;32.60
13591;DHT22;6866;50.778;7.206;2022-09-06T17:24:21;28.90;32.80
13591;DHT22;6866;50.778;7.206;2022-09-06T17:26:47;28.80;33.10
13591;DHT22;6866;50.778;7.206;2022-09-06T17:29:12;28.70;33.10